Time;durP1;ratioP1;P1;durP2;ratioP2;P2;SDS_P1;SDS_P2;PMS_P1;PMS_P2;Temp;Humidity;BMP_temperature;BMP_pressure;BME280_temperature;BME280_humidity;BME280_pressure;Samples;Min_cycle;Max_cycle;Signal;HPM_P1;HPM_P2
2023/05/20 00:01:41;;;;;;;9.18;5.82;;;;;;;13.90;72.37;101458.03;5108888;28;20208;-66
2023/05/20 00:04:09;;;;;;;11.17;6.03;;;;;;;13.85;72.73;101452.00;5109538;28;22144;-68
2023/05/20 00:06:37;;;;;;;6.97;5.47;;;;;;;13.85;72.51;101445.97;5106498;28;20650;-67
2023/05/20 00:09:05;;;;;;;7.43;5.67;;;;;;;13.83;72.36;101445.94;5110666;28;20291;-68
2023/05/20 00:11:33;;;;;;;7.18;5.78;;;;;;;13.81;72.93;101444.22;5110631;28;20726;-67
2023/05/20 00:14:01;;;;;;;8.40;6.00;;;;;;;13.79;72.75;101446.81;5105829;28;20220;-67
2023/05/20 00:16:29;;;;;;;7.43;5.13;;;;;;;13.77;73.13;101446.84;5112076;28;20283;-67
2023/05/20 00:18:58;;;;;;;7.80;4.90;;;;;;;13.78;72.77;101442.53;5110618;28;20203;-68
2023/05/20 00:21:26;;;;;;;9.33;5.73;;;;;;;13.76;72.77;101439.91;5110641;28;20646;-67
2023/05/20 00:23:55;;;;;;;9.43;6.20;;;;;;;13.73;72.85;101432.19;5109027;28;20608;-67
2023/05/20 00:26:23;;;;;;;10.83;5.70;;;;;;;13.70;72.58;101436.50;5110263;28;20200;-67
2023/05/20 00:28:50;;;;;;;6.00;5.00;;;;;;;13.67;73.19;101427.00;5107740;28;20208;-67
2023/05/20 00:31:18;;;;;;;8.27;5.00;;;;;;;13.67;73.28;101431.31;5062708;28;1149677;-66
2023/05/20 00:33:46;;;;;;;7.33;5.50;;;;;;;13.64;72.99;101436.50;5108742;28;20215;-67
2023/05/20 00:36:15;;;;;;;9.10;5.40;;;;;;;13.64;73.28;101432.19;5112856;27;20200;-67
2023/05/20 00:38:43;;;;;;;7.00;5.17;;;;;;;13.63;72.56;101429.59;5112849;28;20200;-67
2023/05/20 00:41:11;;;;;;;7.93;5.43;;;;;;;13.61;73.22;101431.31;5111816;27;20555;-67
2023/05/20 00:43:40;;;;;;;5.57;4.50;;;;;;;13.59;73.10;101427.88;5111596;28;20623;-68
2023/05/20 00:46:08;;;;;;;8.60;5.70;;;;;;;13.59;73.18;101430.47;5107322;27;20204;-67
2023/05/20 00:48:40;;;;;;;8.07;4.73;;;;;;;13.57;72.89;101438.22;5110830;28;20230;-66
2023/05/20 00:51:09;;;;;;;5.88;4.95;;;;;;;13.58;73.10;101433.91;5111328;28;20309;-66
2023/05/20 00:53:39;;;;;;;7.17;4.93;;;;;;;13.58;73.19;101428.72;5109384;27;20215;-67
2023/05/20 00:56:08;;;;;;;6.43;4.73;;;;;;;13.56;73.30;101428.75;5111351;28;20203;-66
2023/05/20 00:58:37;;;;;;;6.97;5.23;;;;;;;13.58;72.70;101431.31;5108465;28;20654;-68
2023/05/20 01:01:05;;;;;;;8.20;5.20;;;;;;;13.54;72.80;101427.88;5108842;27;20566;-68
2023/05/20 01:03:33;;;;;;;7.30;5.10;;;;;;;13.52;72.75;101437.38;5110335;27;20658;-67
2023/05/20 01:06:02;;;;;;;13.57;5.17;;;;;;;13.52;73.06;101437.38;5110813;28;20285;-68
2023/05/20 01:08:30;;;;;;;8.60;4.70;;;;;;;13.49;73.31;101432.22;5111351;27;20205;-67
2023/05/20 01:11:04;;;;;;;8.90;5.20;;;;;;;13.47;73.22;101434.78;5110959;28;20593;-66
2023/05/20 01:13:39;;;;;;;5.87;3.97;;;;;;;13.45;72.69;101441.72;5110784;28;20247;-67
2023/05/20 01:16:10;;;;;;;5.90;4.47;;;;;;;13.39;73.20;101436.53;5111943;28;20206;-66
2023/05/20 01:18:39;;;;;;;7.30;3.97;;;;;;;13.36;72.79;101435.66;5108340;27;20253;-66
2023/05/20 01:21:10;;;;;;;5.37;4.43;;;;;;;13.32;73.26;101428.75;5110973;28;20224;-65
2023/05/20 01:23:40;;;;;;;5.93;4.47;;;;;;;13.32;72.96;101437.38;5099340;28;20196;-66
2023/05/20 01:26:12;;;;;;;9.47;4.33;;;;;;;13.29;72.96;101439.97;5108601;27;20207;-67
2023/05/20 01:28:43;;;;;;;7.97;4.07;;;;;;;13.28;73.12;101436.53;5111162;27;20210;-67
2023/05/20 01:31:15;;;;;;;6.03;4.43;;;;;;;13.27;73.46;101429.63;5110121;28;20244;-67
2023/05/20 01:33:44;;;;;;;4.67;3.93;;;;;;;13.24;72.82;101434.81;5102936;28;20269;-67
2023/05/20 01:36:13;;;;;;;8.10;4.63;;;;;;;13.23;73.05;101432.19;5110530;28;20200;-66
2023/05/20 01:38:43;;;;;;;7.80;4.40;;;;;;;13.22;73.31;101439.09;5103019;28;20207;-67
2023/05/20 01:41:12;;;;;;;7.53;4.30;;;;;;;13.22;73.17;101433.94;5110600;28;20211;-67
2023/05/20 01:43:41;;;;;;;6.33;4.80;;;;;;;13.21;73.37;101431.31;5108412;28;20210;-65
2023/05/20 01:46:09;;;;;;;8.33;4.13;;;;;;;13.22;73.70;101426.16;5110015;28;20195;-65
2023/05/20 01:48:37;;;;;;;5.63;4.43;;;;;;;13.22;73.19;101426.16;5111001;28;20538;-64
2023/05/20 01:51:05;;;;;;;5.77;3.87;;;;;;;13.20;73.23;101427.88;5107272;28;20741;-64
2023/05/20 01:53:33;;;;;;;5.33;3.90;;;;;;;13.20;73.37;101427.00;5109777;28;20253;-64
2023/05/20 01:56:02;;;;;;;5.20;4.10;;;;;;;13.20;73.58;101421.84;5109961;28;20208;-64
2023/05/20 01:58:30;;;;;;;6.07;4.10;;;;;;;13.17;73.59;101414.94;5111084;28;20200;-65
2023/05/20 02:00:58;;;;;;;4.80;3.80;;;;;;;13.17;73.17;101417.53;5111184;28;20231;-65
2023/05/20 02:03:26;;;;;;;7.30;4.10;;;;;;;13.18;73.43;101410.63;5109707;28;20192;-65
2023/05/20 02:05:54;;;;;;;6.77;3.83;;;;;;;13.18;73.43;101416.69;5109611;28;20207;-65
2023/05/20 02:08:22;;;;;;;4.83;4.03;;;;;;;13.15;73.44;101413.22;5108355;28;20665;-65
2023/05/20 02:10:50;;;;;;;5.97;3.90;;;;;;;13.12;73.44;101414.09;5110782;28;20674;-64
2023/05/20 02:13:20;;;;;;;6.50;4.03;;;;;;;13.10;73.08;101408.03;5108267;28;20227;-65
2023/05/20 02:15:47;;;;;;;6.47;3.67;;;;;;;13.09;73.12;101411.50;5110266;28;20210;-66
2023/05/20 02:18:17;;;;;;;6.67;3.80;;;;;;;13.08;72.83;101414.09;5107853;28;20285;-65
2023/05/20 02:20:45;;;;;;;5.27;4.30;;;;;;;13.02;72.88;101415.78;5109039;28;20199;-66
2023/05/20 02:23:13;;;;;;;6.43;4.10;;;;;;;12.99;73.56;101420.09;5102438;28;20219;-65
2023/05/20 02:25:41;;;;;;;5.80;3.53;;;;;;;12.98;73.23;101420.97;5110493;28;20204;-65
2023/05/20 02:28:09;;;;;;;5.50;3.80;;;;;;;12.97;73.27;101422.69;5106679;28;20207;-69
2023/05/20 02:30:39;;;;;;;5.90;3.63;;;;;;;12.99;73.29;101426.13;5107979;28;20566;-66
2023/05/20 02:33:08;;;;;;;8.40;4.27;;;;;;;12.99;72.88;101420.97;5107953;28;20242;-67
2023/05/20 02:35:36;;;;;;;5.93;4.07;;;;;;;12.99;73.46;101415.78;5109583;28;20287;-66
2023/05/20 02:38:04;;;;;;;7.93;4.40;;;;;;;12.98;73.20;101419.25;5108583;28;20633;-65
2023/05/20 02:40:32;;;;;;;5.17;3.93;;;;;;;12.99;73.08;101431.31;5108882;28;20216;-66
2023/05/20 02:43:01;;;;;;;4.63;3.40;;;;;;;12.97;72.92;101430.47;5100438;28;20200;-65
2023/05/20 02:45:29;;;;;;;5.80;3.73;;;;;;;12.98;73.63;101432.19;5106326;28;20279;-66
2023/05/20 02:47:59;;;;;;;3.90;3.20;;;;;;;13.01;73.21;101429.59;5109788;28;20203;-66
2023/05/20 02:50:27;;;;;;;4.63;3.30;;;;;;;13.05;73.32;101430.47;5110441;28;20639;-66
2023/05/20 02:52:56;;;;;;;5.87;3.93;;;;;;;13.08;73.43;101435.66;5110296;28;20693;-66
2023/05/20 02:55:24;;;;;;;10.10;3.93;;;;;;;13.11;73.12;101427.00;5108164;28;20222;-66
2023/05/20 02:57:52;;;;;;;7.37;3.70;;;;;;;13.12;73.36;101426.16;5108266;28;20211;-66
2023/05/20 03:00:21;;;;;;;4.17;3.77;;;;;;;13.13;72.73;101422.69;5109716;28;20200;-66
2023/05/20 03:02:49;;;;;;;6.50;3.90;;;;;;;13.12;72.84;101421.84;5110146;28;20215;-67
2023/05/20 03:05:18;;;;;;;6.83;4.00;;;;;;;13.12;73.00;101426.16;5109164;28;20200;-67
2023/05/20 03:07:47;;;;;;;4.80;3.73;;;;;;;13.10;73.07;101427.88;5110534;28;20559;-67
2023/05/20 03:10:15;;;;;;;5.03;3.80;;;;;;;13.08;73.13;101427.03;5110192;28;20769;-66
2023/05/20 03:12:43;;;;;;;5.37;3.90;;;;;;;13.11;72.61;101427.00;5106308;28;20200;-65
2023/05/20 03:15:12;;;;;;;5.37;3.70;;;;;;;13.12;72.87;101420.97;5108405;28;20216;-67
2023/05/20 03:17:39;;;;;;;7.77;3.60;;;;;;;13.15;72.67;101432.19;5105435;28;20207;-65
2023/05/20 03:20:11;;;;;;;3.87;3.47;;;;;;;13.18;73.00;101420.97;5106526;27;20231;-67
2023/05/20 03:22:40;;;;;;;4.93;3.50;;;;;;;13.21;72.49;101431.31;5108846;27;20669;-66
2023/05/20 03:25:09;;;;;;;5.17;3.67;;;;;;;13.20;72.41;101433.06;5110296;28;20646;-65
2023/05/20 03:27:37;;;;;;;6.00;3.50;;;;;;;13.20;72.52;101427.88;5114061;28;20195;-65
2023/05/20 03:30:06;;;;;;;5.07;3.70;;;;;;;13.21;71.90;101436.50;5111798;28;20570;-66
2023/05/20 03:32:34;;;;;;;10.27;3.97;;;;;;;13.20;72.28;101432.19;5111175;28;20318;-68
2023/05/20 03:35:02;;;;;;;5.03;3.43;;;;;;;13.19;72.52;101433.06;5110600;28;20354;-65
2023/05/20 03:37:30;;;;;;;5.47;3.87;;;;;;;13.18;72.66;101436.50;5112041;28;20659;-66
2023/05/20 03:39:59;;;;;;;5.20;3.67;;;;;;;13.17;72.59;101438.22;5107299;27;20203;-69
2023/05/20 03:42:27;;;;;;;5.33;3.57;;;;;;;13.15;72.71;101432.19;5112305;27;20211;-65
2023/05/20 03:44:55;;;;;;;3.30;3.00;;;;;;;13.18;72.52;101433.91;5113235;27;20211;-66
2023/05/20 03:47:24;;;;;;;6.23;3.40;;;;;;;13.19;72.31;101433.91;5112202;27;20245;-65
2023/05/20 03:49:52;;;;;;;4.40;3.87;;;;;;;13.21;72.52;101431.31;5109788;28;20228;-65
2023/05/20 03:52:20;;;;;;;6.83;3.50;;;;;;;13.23;72.78;101422.72;5112222;27;20710;-65
2023/05/20 03:54:47;;;;;;;5.27;3.70;;;;;;;13.27;72.25;101432.22;5111951;28;20220;-66
2023/05/20 03:57:17;;;;;;;5.50;3.80;;;;;;;13.29;72.55;101425.34;5113199;27;20211;-66
2023/05/20 03:59:45;;;;;;;5.07;3.60;;;;;;;13.31;72.12;101427.91;5112365;27;20233;-66
2023/05/20 04:02:12;;;;;;;5.17;3.70;;;;;;;13.33;72.27;101430.47;5111051;27;20208;-66
2023/05/20 04:04:42;;;;;;;5.07;3.33;;;;;;;13.35;71.81;101429.63;5111957;27;20300;-66
2023/05/20 04:07:10;;;;;;;4.67;3.47;;;;;;;13.39;72.23;101431.34;5110371;28;20596;-66
2023/05/20 04:09:38;;;;;;;6.67;3.97;;;;;;;13.43;72.42;101439.97;5110524;28;20662;-65
2023/05/20 04:12:06;;;;;;;6.10;3.57;;;;;;;13.48;72.23;101426.16;5112772;28;20203;-64
2023/05/20 04:14:35;;;;;;;5.93;4.10;;;;;;;13.53;72.08;101434.78;5112680;28;20232;-66
2023/05/20 04:17:04;;;;;;;4.67;3.47;;;;;;;13.57;71.47;101429.59;5113257;27;20568;-66
2023/05/20 04:19:33;;;;;;;6.47;4.17;;;;;;;13.60;71.68;101435.66;5102972;28;20208;-66
2023/05/20 04:22:01;;;;;;;7.33;4.73;;;;;;;13.66;71.49;101440.81;5112267;28;20202;-67
2023/05/20 04:24:29;;;;;;;4.83;3.43;;;;;;;13.72;71.32;101443.38;5106302;28;20204;-66
2023/05/20 04:26:57;;;;;;;5.57;3.70;;;;;;;13.78;71.21;101448.56;5108535;28;20200;-66
2023/05/20 04:29:25;;;;;;;4.63;3.87;;;;;;;13.85;70.91;101440.78;5104679;27;20568;-66
2023/05/20 04:31:57;;;;;;;7.20;4.07;;;;;;;13.90;70.65;101446.81;5104699;27;20239;-69
2023/05/20 04:34:25;;;;;;;5.50;3.80;;;;;;;13.95;70.63;101438.13;5110568;27;20192;-67
2023/05/20 04:36:53;;;;;;;5.60;4.10;;;;;;;14.07;70.71;101446.75;5105654;27;20629;-66
2023/05/20 04:39:21;;;;;;;5.35;3.95;;;;;;;14.18;70.73;101439.81;5111622;28;20654;-67
2023/05/20 04:41:49;;;;;;;6.07;4.23;;;;;;;14.31;69.87;101436.28;5105056;27;20206;-66
2023/05/20 04:44:17;;;;;;;6.13;4.00;;;;;;;14.40;69.72;101436.25;5110640;28;20200;-67
2023/05/20 04:46:45;;;;;;;5.28;3.75;;;;;;;14.50;68.98;101430.16;5109192;28;20200;-69
2023/05/20 04:49:14;;;;;;;5.37;4.00;;;;;;;14.60;69.38;101427.53;5111861;28;20200;-67
2023/05/20 04:51:42;;;;;;;5.87;3.30;;;;;;;14.69;68.47;101420.56;5109725;28;20223;-67
2023/05/20 04:54:10;;;;;;;5.87;3.60;;;;;;;14.81;68.26;101432.56;5109970;28;20570;-67
2023/05/20 04:56:39;;;;;;;3.90;3.33;;;;;;;14.90;68.23;101429.91;5105956;27;20223;-68
2023/05/20 04:59:08;;;;;;;6.13;3.60;;;;;;;14.98;67.72;101425.53;5110812;28;20204;-66
2023/05/20 05:01:36;;;;;;;6.10;3.65;;;;;;;15.08;67.49;101430.66;5105247;28;20219;-68
2023/05/20 05:04:04;;;;;;;4.20;3.60;;;;;;;15.12;66.72;101428.00;5108050;28;20204;-67
2023/05/20 05:06:34;;;;;;;3.75;3.05;;;;;;;15.22;66.85;101431.41;5107407;27;20204;-67
2023/05/20 05:09:02;;;;;;;3.67;3.00;;;;;;;15.32;66.46;101435.66;5107014;27;20196;-71
2023/05/20 05:11:29;;;;;;;4.25;3.25;;;;;;;15.37;65.85;101444.25;5108513;27;20273;-66
2023/05/20 05:13:57;;;;;;;4.50;3.28;;;;;;;15.37;66.02;101439.03;5109634;28;20654;-67
2023/05/20 05:16:25;;;;;;;4.80;3.47;;;;;;;15.58;66.03;101437.13;5108615;28;20762;-67
2023/05/20 05:18:53;;;;;;;6.55;3.40;;;;;;;15.82;64.90;101439.50;5111245;28;21004;-67
2023/05/20 05:21:21;;;;;;;3.65;3.10;;;;;;;16.14;64.06;101439.13;5110833;28;20860;-67
2023/05/20 05:23:50;;;;;;;5.57;2.92;;;;;;;16.69;63.30;101424.53;5107880;28;20204;-66
2023/05/20 05:26:18;;;;;;;5.22;3.35;;;;;;;17.66;59.17;101420.31;5098319;28;20223;-67
2023/05/20 05:28:46;;;;;;;7.90;3.20;;;;;;;18.12;57.81;101422.06;5109601;28;20207;-67
2023/05/20 05:31:14;;;;;;;7.07;3.40;;;;;;;18.80;56.24;101423.16;5109531;28;20567;-67
2023/05/20 05:33:42;;;;;;;4.00;2.90;;;;;;;18.86;55.14;101434.38;5111649;28;20219;-66
2023/05/20 05:36:10;;;;;;;3.85;3.25;;;;;;;19.12;54.07;101426.75;5110273;27;20220;-68
2023/05/20 05:38:38;;;;;;;5.03;3.08;;;;;;;20.16;52.73;101423.13;5111098;28;20212;-68
2023/05/20 05:41:07;;;;;;;6.03;2.92;;;;;;;20.33;50.17;101420.88;5109858;28;20200;-68
2023/05/20 05:43:35;;;;;;;5.85;2.67;;;;;;;19.97;50.46;101422.78;5106715;28;20200;-67
2023/05/20 05:46:03;;;;;;;4.93;3.25;;;;;;;19.54;50.72;101426.53;5108184;28;20200;-66
2023/05/20 05:48:31;;;;;;;5.75;3.28;;;;;;;19.44;52.46;101436.41;5105206;28;20195;-69
2023/05/20 05:50:59;;;;;;;4.57;2.90;;;;;;;19.43;52.78;101433.81;5108257;28;20196;-67
2023/05/20 05:53:27;;;;;;;4.25;3.10;;;;;;;19.64;53.19;101438.50;5111778;28;20258;-67
2023/05/20 05:55:55;;;;;;;3.72;2.63;;;;;;;19.76;51.99;101432.94;5109032;28;20216;-70
2023/05/20 05:58:24;;;;;;;5.55;3.00;;;;;;;19.79;52.25;101427.63;5112103;28;20208;-69
2023/05/20 06:00:53;;;;;;;3.67;2.67;;;;;;;20.12;51.10;101430.19;5110470;28;20204;-67
2023/05/20 06:03:21;;;;;;;4.82;3.05;;;;;;;20.03;50.48;101428.72;5109053;28;20606;-67
2023/05/20 06:05:49;;;;;;;3.67;2.90;;;;;;;20.25;50.74;101436.81;5111129;28;20224;-67
2023/05/20 06:08:18;;;;;;;4.63;3.10;;;;;;;20.76;49.67;101430.03;5109879;28;20203;-66
2023/05/20 06:10:47;;;;;;;6.20;3.38;;;;;;;20.78;48.77;101427.38;5111040;28;20204;-69
2023/05/20 06:13:15;;;;;;;5.05;2.88;;;;;;;20.55;49.67;101435.97;5104760;28;20224;-67
2023/05/20 06:15:45;;;;;;;4.32;3.15;;;;;;;20.39;49.88;101432.91;5108924;28;20694;-65
2023/05/20 06:18:13;;;;;;;5.53;3.15;;;;;;;20.27;50.20;101429.75;5110355;28;20204;-67
2023/05/20 06:20:41;;;;;;;3.72;2.72;;;;;;;20.32;50.86;101431.34;5108628;28;20211;-66
2023/05/20 06:23:09;;;;;;;2.97;2.47;;;;;;;20.52;50.36;101429.03;5108971;28;20196;-68
2023/05/20 06:25:37;;;;;;;4.38;2.95;;;;;;;20.95;49.41;101425.03;5099723;28;20196;-67
2023/05/20 06:28:05;;;;;;;3.55;3.00;;;;;;;21.54;48.31;101422.22;5106560;28;20222;-67
2023/05/20 06:30:33;;;;;;;2.70;2.45;;;;;;;22.05;46.71;101421.22;5102097;28;20200;-66
2023/05/20 06:33:02;;;;;;;3.92;2.90;;;;;;;22.12;45.15;101420.06;5107489;28;20235;-70
2023/05/20 06:35:30;;;;;;;5.70;3.28;;;;;;;21.99;45.87;101421.47;5108211;28;20199;-68
2023/05/20 06:37:59;;;;;;;3.22;2.92;;;;;;;21.87;45.90;101420.16;5107827;28;20196;-68
2023/05/20 06:40:28;;;;;;;4.25;2.47;;;;;;;21.91;46.59;101415.66;5111442;28;20670;-69
2023/05/20 06:42:55;;;;;;;4.03;2.67;;;;;;;22.11;46.09;101414.91;5110050;28;20210;-67
2023/05/20 06:45:23;;;;;;;6.57;3.10;;;;;;;22.36;45.41;101414.84;5110853;28;20207;-67
2023/05/20 06:47:53;;;;;;;9.43;4.20;;;;;;;22.80;45.05;101412.25;5108873;28;20196;-68
2023/05/20 06:50:27;;;;;;;5.78;3.22;;;;;;;24.80;41.52;101402.44;5111456;28;20200;-68
2023/05/20 06:52:54;;;;;;;4.38;3.45;;;;;;;26.55;37.44;101395.88;5107801;28;20204;-67
2023/05/20 06:55:22;;;;;;;4.75;3.20;;;;;;;27.20;35.13;101392.06;5109563;28;20226;-67
2023/05/20 06:57:50;;;;;;;3.17;2.65;;;;;;;27.89;33.93;101384.38;5098476;27;20230;-66
2023/05/20 07:00:18;;;;;;;4.72;2.70;;;;;;;29.00;32.75;101386.03;5109474;28;20570;-67
2023/05/20 07:02:46;;;;;;;3.38;2.60;;;;;;;30.50;29.91;101386.91;5108079;28;20211;-66
2023/05/20 07:05:14;;;;;;;7.22;2.80;;;;;;;31.33;28.19;101385.13;5112926;28;20654;-60
2023/05/20 07:07:43;;;;;;;4.53;3.20;;;;;;;31.45;26.77;101389.53;5109705;27;20202;-59
2023/05/20 07:10:15;;;;;;;3.85;2.90;;;;;;;31.79;27.31;101379.69;5105515;27;20206;-62
2023/05/20 07:12:42;;;;;;;3.83;2.58;;;;;;;32.66;26.56;101377.09;5103101;28;20204;-60
2023/05/20 07:15:11;;;;;;;3.30;2.50;;;;;;;33.27;25.73;101368.38;5114786;28;20568;-61
2023/05/20 07:17:39;;;;;;;4.63;2.67;;;;;;;33.57;24.56;101379.09;5114151;28;20306;-61
2023/05/20 07:20:08;;;;;;;3.13;2.40;;;;;;;33.87;24.38;101374.69;5110137;28;20207;-61
2023/05/20 07:22:36;;;;;;;3.08;2.42;;;;;;;34.04;23.79;101370.56;5114755;27;20211;-62
2023/05/20 07:25:06;;;;;;;4.57;2.40;;;;;;;33.93;22.98;101379.50;5114375;28;20204;-60
2023/05/20 07:27:34;;;;;;;4.07;2.50;;;;;;;34.11;22.97;101375.22;5114402;28;20228;-60
2023/05/20 07:30:02;;;;;;;3.55;2.20;;;;;;;33.97;23.83;101374.72;5113428;28;20245;-61
2023/05/20 07:32:30;;;;;;;6.50;3.53;;;;;;;34.56;23.43;101369.34;5107274;28;20239;-60
2023/05/20 07:34:57;;;;;;;3.20;2.90;;;;;;;35.40;22.26;101371.31;5107893;27;20710;-67
2023/05/20 07:37:26;;;;;;;3.35;2.35;;;;;;;35.46;21.83;101361.81;5110160;28;20236;-68
2023/05/20 07:39:54;;;;;;;6.38;2.63;;;;;;;35.15;22.18;101366.59;5115145;27;20200;-66
2023/05/20 07:42:23;;;;;;;3.60;2.80;;;;;;;35.07;22.27;101365.50;5111878;28;20535;-68
2023/05/20 07:44:51;;;;;;;5.30;3.08;;;;;;;35.85;21.89;101359.81;5112124;28;20207;-66
2023/05/20 07:47:19;;;;;;;5.05;2.28;;;;;;;36.66;20.99;101358.97;5112880;28;20256;-68
2023/05/20 07:49:47;;;;;;;2.70;2.22;;;;;;;37.14;20.63;101354.97;5112105;27;20199;-68
2023/05/20 07:52:15;;;;;;;3.20;2.75;;;;;;;37.67;20.04;101354.75;5110298;28;20204;-67
2023/05/20 07:54:46;;;;;;;4.72;2.28;;;;;;;37.76;19.17;101352.91;5113319;28;20555;-68
2023/05/20 07:57:14;;;;;;;5.65;2.45;;;;;;;36.94;20.25;101354.31;5112990;27;20212;-68
2023/05/20 07:59:44;;;;;;;4.75;2.92;;;;;;;35.86;21.48;101361.50;5112709;28;20200;-69
2023/05/20 08:02:12;;;;;;;4.13;2.67;;;;;;;34.92;22.32;101352.69;5112410;28;20550;-66
2023/05/20 08:04:42;;;;;;;3.20;2.58;;;;;;;33.65;24.10;101355.19;5111757;28;20278;-67
2023/05/20 08:07:10;;;;;;;4.53;2.55;;;;;;;32.63;25.74;101356.84;5109676;28;20283;-67
2023/05/20 08:09:37;;;;;;;6.35;3.42;;;;;;;31.59;26.76;101353.78;5112123;28;20204;-67
2023/05/20 08:12:06;;;;;;;8.73;3.25;;;;;;;30.54;27.72;101360.91;5111888;28;20196;-69
2023/05/20 08:14:34;;;;;;;3.95;2.50;;;;;;;29.46;29.91;101358.94;5095953;27;20231;-67
2023/05/20 08:17:03;;;;;;;8.38;2.78;;;;;;;28.48;31.39;101365.59;5111886;28;20216;-67
2023/05/20 08:19:31;;;;;;;5.35;2.20;;;;;;;27.67;33.36;101366.28;5109478;28;20200;-69
2023/05/20 08:21:59;;;;;;;5.35;2.85;;;;;;;26.96;34.88;101369.69;5110548;27;20262;-58
2023/05/20 08:24:27;;;;;;;4.35;3.03;;;;;;;26.67;35.78;101374.03;5101714;28;20207;-60
2023/05/20 08:26:55;;;;;;;3.78;3.15;;;;;;;26.55;36.49;101369.44;5107750;28;20584;-64
2023/05/20 08:29:23;;;;;;;4.68;2.78;;;;;;;26.30;37.20;101365.53;5101677;28;20223;-60
2023/05/20 08:31:51;;;;;;;3.60;2.60;;;;;;;26.08;37.18;101363.22;5108032;27;20239;-61
2023/05/20 08:34:20;;;;;;;4.63;2.78;;;;;;;25.92;37.63;101365.00;5108380;28;20712;-65
2023/05/20 08:36:48;;;;;;;3.83;2.60;;;;;;;25.81;38.01;101362.94;5106337;28;20206;-61
2023/05/20 08:39:16;;;;;;;4.43;2.60;;;;;;;25.64;38.79;101365.63;5108522;28;20563;-61
2023/05/20 08:41:47;;;;;;;3.17;2.58;;;;;;;25.39;39.26;101353.72;5109899;28;20555;-62
2023/05/20 08:44:16;;;;;;;3.10;2.78;;;;;;;25.24;39.04;101362.44;5102602;28;20571;-60
2023/05/20 08:46:45;;;;;;;4.53;3.13;;;;;;;25.26;39.12;101360.59;5104975;28;20571;-62
2023/05/20 08:49:13;;;;;;;4.57;2.95;;;;;;;25.36;38.94;101351.22;5101230;28;20248;-60
2023/05/20 08:51:45;;;;;;;3.00;2.78;;;;;;;25.57;38.81;101351.03;5101364;28;20199;-61
2023/05/20 08:54:15;;;;;;;5.93;3.08;;;;;;;25.84;38.67;101351.38;5105573;28;20200;-62
2023/05/20 08:56:44;;;;;;;5.45;3.15;;;;;;;26.10;38.96;101352.56;5102109;28;20207;-62
2023/05/20 08:59:12;;;;;;;4.05;2.67;;;;;;;26.31;38.72;101347.88;5104877;28;20196;-65
2023/05/20 09:01:42;;;;;;;3.63;2.80;;;;;;;26.11;37.89;101349.84;5105727;28;20200;-62
2023/05/20 09:04:10;;;;;;;5.75;2.63;;;;;;;26.04;38.44;101347.66;5109016;28;20215;-62
2023/05/20 09:06:47;;;;;;;6.15;2.90;;;;;;;26.08;38.61;101346.53;5099208;27;20578;-61
2023/05/20 09:09:15;;;;;;;5.90;2.75;;;;;;;26.22;38.82;101343.97;5108834;28;20718;-62
2023/05/20 09:11:43;;;;;;;3.15;2.80;;;;;;;26.16;38.20;101339.03;5108672;28;20207;-64
2023/05/20 09:14:11;;;;;;;3.50;3.08;;;;;;;25.79;38.22;101348.97;5106080;28;20562;-62
2023/05/20 09:16:40;;;;;;;3.30;2.67;;;;;;;25.54;39.27;101344.97;5099009;28;20209;-61
2023/05/20 09:19:09;;;;;;;7.18;3.20;;;;;;;25.30;39.58;101343.66;5098563;28;20224;-62
2023/05/20 09:21:38;;;;;;;3.22;2.92;;;;;;;25.14;39.83;101335.69;5101198;28;20200;-63
2023/05/20 09:24:07;;;;;;;4.32;3.08;;;;;;;24.95;41.06;101337.53;5098273;28;20200;-61
2023/05/20 09:26:36;;;;;;;3.97;3.20;;;;;;;24.73;40.95;101330.69;5105460;28;20745;-62
2023/05/20 09:29:04;;;;;;;4.07;3.00;;;;;;;24.71;41.26;101337.00;5110513;28;20722;-62
2023/05/20 09:31:33;;;;;;;3.45;2.85;;;;;;;24.87;41.44;101343.19;5106931;28;20239;-62
2023/05/20 09:34:01;;;;;;;3.50;3.20;;;;;;;24.82;40.99;101337.31;5109837;28;20206;-62
2023/05/20 09:36:30;;;;;;;5.72;2.95;;;;;;;24.70;41.01;101338.75;5105357;28;20204;-62
2023/05/20 09:39:03;;;;;;;4.93;3.13;;;;;;;24.65;41.07;101326.75;5110269;27;20212;-62
2023/05/20 09:41:38;;;;;;;4.95;3.72;;;;;;;24.67;41.18;101338.06;5100746;28;20228;-62
2023/05/20 09:44:06;;;;;;;6.82;3.17;;;;;;;24.83;41.06;101334.59;5108831;28;20590;-64
2023/05/20 09:46:36;;;;;;;4.97;3.35;;;;;;;24.96;40.49;101339.22;5111104;28;20208;-62
2023/05/20 09:49:05;;;;;;;8.93;3.13;;;;;;;25.00;39.72;101328.47;5098340;28;20731;-62
2023/05/20 09:51:34;;;;;;;5.10;2.97;;;;;;;24.96;40.20;101332.16;5107042;28;20231;-62
2023/05/20 09:54:03;;;;;;;4.30;3.80;;;;;;;25.51;40.02;101329.31;5111918;28;20196;-62
2023/05/20 09:56:34;;;;;;;4.07;3.20;;;;;;;26.71;36.92;101327.97;5111430;28;20203;-63
2023/05/20 09:59:05;;;;;;;8.27;3.60;;;;;;;27.50;35.03;101329.41;5111420;28;20216;-63
2023/05/20 10:01:33;;;;;;;7.40;3.45;;;;;;;27.87;33.95;101323.53;5111332;28;20214;-64
2023/05/20 10:04:02;;;;;;;5.43;3.22;;;;;;;27.68;34.02;101320.31;5111435;28;20664;-62
2023/05/20 10:06:50;;;;;;;4.88;3.30;;;;;;;28.64;33.22;101308.75;5107613;28;20195;-63
2023/05/20 10:09:32;;;;;;;4.72;3.20;;;;;;;29.23;32.02;101315.41;5108018;28;20235;-63
2023/05/20 10:12:12;;;;;;;10.95;3.67;;;;;;;30.37;30.19;101316.09;5110321;28;20200;-63
2023/05/20 10:14:55;;;;;;;6.10;3.13;;;;;;;30.45;29.81;101303.94;5111665;28;20199;-63
2023/05/20 10:17:39;;;;;;;6.20;3.35;;;;;;;29.10;31.42;101304.81;5104879;28;20673;-63
2023/05/20 10:20:10;;;;;;;6.20;2.92;;;;;;;28.97;32.26;101312.72;5110167;28;21003;-62
2023/05/20 10:22:39;;;;;;;3.30;3.00;;;;;;;28.64;32.45;101310.56;5101605;28;20261;-62
2023/05/20 10:25:12;;;;;;;5.80;3.85;;;;;;;27.70;34.03;101315.78;5103486;28;20196;-63
2023/05/20 10:27:46;;;;;;;6.53;3.80;;;;;;;26.66;36.44;101308.88;5114856;28;20210;-63
2023/05/20 10:30:18;;;;;;;10.52;4.28;;;;;;;25.83;37.44;101317.97;5114887;28;20273;-63
2023/05/20 10:32:52;;;;;;;5.97;3.85;;;;;;;25.57;38.23;101309.66;5113598;28;20239;-65
2023/05/20 10:35:26;;;;;;;5.05;3.40;;;;;;;26.85;37.10;101304.19;5110095;28;20203;-63
2023/05/20 10:37:55;;;;;;;5.00;3.72;;;;;;;28.89;34.53;101286.72;5110170;28;20215;-66
2023/05/20 10:40:25;;;;;;;4.32;3.80;;;;;;;30.16;31.24;101290.13;5098408;27;20245;-62
2023/05/20 10:42:59;;;;;;;5.82;3.33;;;;;;;29.91;30.87;101288.44;5112088;27;21262;-62
2023/05/20 10:45:31;;;;;;;5.25;3.55;;;;;;;29.53;30.76;101283.19;5113395;28;20211;-62
2023/05/20 10:47:59;;;;;;;7.43;3.38;;;;;;;29.06;31.92;101272.34;5103670;28;20192;-63
2023/05/20 10:50:28;;;;;;;3.97;3.55;;;;;;;28.85;33.20;101271.97;5112162;28;20711;-63
2023/05/20 10:53:04;;;;;;;4.60;3.25;;;;;;;29.99;31.82;101263.94;5111761;28;20207;-65
2023/05/20 10:55:41;;;;;;;4.22;3.38;;;;;;;31.54;29.31;101263.56;5111910;28;20702;-65
2023/05/20 10:58:11;;;;;;;3.95;3.28;;;;;;;32.67;27.22;101251.53;5097944;27;20218;-65
2023/05/20 11:00:39;;;;;;;6.20;3.67;;;;;;;32.11;26.17;101264.28;5099242;27;20203;-64
2023/05/20 11:03:08;;;;;;;4.78;3.75;;;;;;;31.95;26.89;101270.03;5113260;28;20310;-63
2023/05/20 11:05:36;;;;;;;8.32;3.72;;;;;;;31.66;26.68;101254.56;5113638;28;20215;-65
2023/05/20 11:08:06;;;;;;;6.22;3.15;;;;;;;29.76;30.42;101258.53;5112580;27;20211;-62
2023/05/20 11:10:56;;;;;;;3.20;2.90;;;;;;;29.07;32.26;101250.13;5109394;28;20280;-65
2023/05/20 11:13:26;;;;;;;4.88;3.42;;;;;;;28.49;32.82;101248.81;5107112;27;20570;-62
2023/05/20 11:15:54;;;;;;;3.60;3.25;;;;;;;28.34;32.17;101240.06;5109865;28;20199;-62
2023/05/20 11:18:22;;;;;;;5.70;3.50;;;;;;;28.17;32.55;101237.69;5110420;28;20223;-61
2023/05/20 11:20:52;;;;;;;5.10;3.53;;;;;;;28.27;32.24;101238.75;5110661;28;20673;-62
2023/05/20 11:23:22;;;;;;;4.50;3.65;;;;;;;27.56;34.11;101242.50;5113914;28;20212;-63
2023/05/20 11:25:50;;;;;;;4.60;3.35;;;;;;;26.80;35.31;101232.19;5108157;28;20204;-63
2023/05/20 11:28:20;;;;;;;5.50;3.92;;;;;;;27.53;35.06;101232.09;5114598;28;20199;-67
2023/05/20 11:30:50;;;;;;;6.50;3.70;;;;;;;28.56;32.99;101217.44;5107816;28;20215;-64
2023/05/20 11:33:18;;;;;;;4.00;3.60;;;;;;;29.07;32.08;101226.25;5103187;27;20232;-64